createdAt,value
2022-11-14T00:00:13.849Z,17.40
2022-11-14T00:05:40.038Z,16.60
2022-11-14T00:11:00.747Z,16.43
2022-11-14T00:16:21.422Z,15.53
2022-11-14T00:21:41.890Z,15.43
2022-11-14T00:27:02.448Z,14.83
2022-11-14T00:32:22.988Z,15.90
2022-11-14T00:37:43.343Z,15.13
2022-11-14T00:43:03.781Z,15.83
2022-11-14T00:48:24.279Z,14.60
2022-11-14T00:53:44.666Z,14.17
2022-11-14T00:59:05.012Z,13.70
2022-11-14T01:04:25.625Z,14.13
2022-11-14T01:09:45.951Z,13.57
2022-11-14T01:15:07.005Z,14.20
2022-11-14T01:20:27.151Z,13.20
2022-11-14T01:25:47.625Z,12.67
2022-11-14T01:31:15.004Z,11.80
2022-11-14T01:36:35.159Z,11.87
2022-11-14T01:41:55.920Z,11.63
2022-11-14T01:47:20.956Z,11.87
2022-11-14T01:52:41.712Z,11.67
2022-11-14T01:58:03.578Z,12.27
2022-11-14T02:03:24.245Z,12.20
2022-11-14T02:08:45.383Z,12.27
2022-11-14T02:14:06.829Z,12.70
2022-11-14T02:20:04.745Z,12.87
2022-11-14T02:25:26.098Z,11.63
2022-11-14T02:30:46.463Z,12.57
2022-11-14T02:36:07.443Z,11.90
2022-11-14T02:41:27.584Z,12.00
2022-11-14T02:46:48.306Z,12.40
2022-11-14T02:52:08.826Z,11.47
2022-11-14T02:57:29.470Z,12.00
2022-11-14T03:02:49.984Z,12.10
2022-11-14T03:08:10.672Z,11.00
2022-11-14T03:13:31.216Z,12.00
2022-11-14T03:18:52.112Z,11.83
2022-11-14T03:24:12.631Z,12.13
2022-11-14T03:29:32.964Z,13.13
2022-11-14T03:34:53.522Z,13.90
2022-11-14T03:40:13.789Z,11.30
2022-11-14T03:45:34.025Z,12.30
2022-11-14T03:50:54.707Z,12.83
2022-11-14T03:56:15.160Z,11.67
2022-11-14T04:01:35.802Z,11.70
2022-11-14T04:06:56.243Z,12.37
2022-11-14T04:12:16.721Z,10.93
2022-11-14T04:17:39.905Z,11.80
2022-11-14T04:23:00.242Z,13.43
2022-11-14T04:28:20.683Z,12.63
2022-11-14T04:33:41.216Z,12.93
2022-11-14T04:39:01.923Z,12.70
2022-11-14T04:44:22.438Z,11.73
2022-11-14T04:49:43.027Z,12.73
2022-11-14T04:55:03.640Z,12.57
2022-11-14T05:00:24.930Z,12.37
2022-11-14T05:05:45.121Z,13.27
2022-11-14T05:11:05.746Z,12.67
2022-11-14T05:16:26.066Z,12.20
2022-11-14T05:21:46.704Z,12.43
2022-11-14T05:27:07.196Z,11.30
2022-11-14T05:32:27.384Z,11.67
2022-11-14T05:37:47.853Z,12.40
2022-11-14T05:43:08.615Z,12.27
2022-11-14T05:48:30.413Z,11.17
2022-11-14T05:53:51.305Z,11.40
2022-11-14T05:59:11.956Z,12.00
2022-11-14T06:04:32.416Z,11.27
2022-11-14T06:09:52.996Z,11.77
2022-11-14T06:15:13.581Z,10.57
2022-11-14T06:20:34.159Z,13.20
2022-11-14T06:26:08.222Z,12.00
2022-11-14T06:31:28.658Z,10.93
2022-11-14T06:36:48.800Z,11.70
2022-11-14T06:42:09.423Z,11.33
2022-11-14T06:47:29.699Z,11.20
2022-11-14T06:52:50.401Z,10.57
2022-11-14T06:58:10.907Z,10.57
2022-11-14T07:03:32.217Z,10.47
2022-11-14T07:08:54.074Z,10.47
2022-11-14T07:14:14.279Z,11.60
2022-11-14T07:19:35.028Z,11.00
2022-11-14T07:24:55.135Z,10.43
2022-11-14T07:30:15.745Z,9.47
2022-11-14T07:35:36.245Z,9.47
2022-11-14T07:41:02.226Z,10.47
2022-11-14T07:46:22.815Z,11.17
2022-11-14T07:51:43.573Z,9.90
2022-11-14T07:57:03.944Z,12.27
2022-11-14T08:02:24.445Z,12.70
2022-11-14T08:07:44.877Z,15.60
2022-11-14T08:18:46.929Z,14.70
2022-11-14T08:24:07.728Z,14.23
2022-11-14T08:29:27.985Z,15.20
2022-11-14T08:34:48.673Z,19.23
2022-11-14T08:40:10.813Z,23.33
2022-11-14T08:45:31.113Z,21.03
2022-11-14T08:50:51.903Z,26.60
2022-11-14T08:56:12.372Z,23.13
2022-11-14T09:01:33.097Z,22.13
2022-11-14T09:06:53.728Z,16.00
2022-11-14T09:12:14.265Z,11.63
2022-11-14T09:17:35.322Z,9.53
2022-11-14T09:23:00.075Z,9.97
2022-11-14T09:28:20.643Z,9.20
2022-11-14T09:33:41.441Z,8.37
2022-11-14T09:39:01.924Z,7.90
2022-11-14T09:44:39.013Z,8.13
2022-11-14T09:50:08.117Z,8.20
2022-11-14T09:55:36.317Z,8.60
2022-11-14T10:01:09.866Z,9.97
2022-11-14T10:06:35.509Z,11.40
2022-11-14T10:12:11.175Z,11.20
2022-11-14T10:18:05.516Z,10.83
2022-11-14T10:23:35.872Z,10.47
2022-11-14T10:29:24.417Z,11.37
2022-11-14T10:35:02.996Z,10.17
2022-11-14T10:40:29.397Z,10.73
2022-11-14T10:46:10.179Z,9.87
2022-11-14T10:51:55.874Z,11.50
2022-11-14T10:57:21.326Z,9.83
2022-11-14T11:02:56.554Z,10.33
2022-11-14T11:08:43.725Z,8.80
2022-11-14T11:14:04.956Z,9.40
2022-11-14T11:19:26.818Z,9.83
2022-11-14T11:24:47.315Z,10.00
2022-11-14T11:30:23.262Z,9.53
2022-11-14T11:35:47.765Z,9.70
2022-11-14T11:41:25.952Z,11.70
2022-11-14T11:46:57.627Z,9.23
2022-11-14T11:52:26.378Z,11.30
2022-11-14T11:58:25.321Z,10.47
2022-11-14T12:03:51.383Z,11.27
2022-11-14T12:09:20.829Z,11.10
2022-11-14T12:15:10.546Z,12.87
2022-11-14T12:20:36.897Z,11.67
2022-11-14T12:26:02.027Z,12.07
2022-11-14T12:31:22.352Z,11.17
2022-11-14T12:36:45.982Z,12.40
2022-11-14T12:42:10.741Z,12.77
2022-11-14T12:47:31.044Z,12.43
2022-11-14T12:52:54.083Z,12.27
2022-11-14T12:58:30.321Z,13.03
2022-11-14T13:04:24.683Z,13.20
2022-11-14T13:10:03.602Z,13.30
2022-11-14T13:15:49.537Z,13.47
2022-11-14T13:21:47.134Z,13.10
2022-11-14T13:27:45.137Z,13.40
2022-11-14T13:33:07.470Z,14.17
2022-11-14T13:38:43.984Z,16.43
2022-11-14T13:44:24.700Z,17.23
2022-11-14T13:49:53.926Z,19.03
2022-11-14T13:55:22.661Z,19.10
2022-11-14T14:01:22.368Z,15.00
2022-11-14T14:07:08.587Z,15.10
2022-11-14T14:12:52.605Z,15.20
2022-11-14T14:18:29.182Z,15.43
2022-11-14T14:24:15.912Z,14.33
2022-11-14T14:29:55.191Z,15.37
2022-11-14T14:35:27.385Z,14.50
2022-11-14T14:40:48.106Z,14.73
2022-11-14T14:46:08.839Z,14.57
2022-11-14T14:51:35.075Z,15.10
2022-11-14T14:57:02.618Z,15.00
2022-11-14T15:02:24.207Z,15.23
2022-11-14T15:07:46.392Z,17.07
2022-11-14T15:13:11.091Z,15.70
2022-11-14T15:18:33.129Z,15.57
2022-11-14T15:24:14.664Z,16.43
2022-11-14T15:29:35.356Z,15.77
2022-11-14T15:35:27.112Z,15.57
2022-11-14T15:41:18.844Z,17.53
2022-11-14T15:46:42.326Z,16.80
2022-11-14T15:52:03.484Z,16.80
2022-11-14T15:57:24.028Z,15.27
2022-11-14T16:02:49.516Z,13.83
2022-11-14T16:08:11.160Z,15.10
2022-11-14T16:13:31.477Z,13.17
2022-11-14T16:18:52.680Z,13.67
2022-11-14T16:24:23.464Z,12.80
2022-11-14T16:29:44.018Z,12.80
2022-11-14T16:35:06.400Z,12.87
2022-11-14T16:40:27.930Z,13.27
2022-11-14T16:45:48.570Z,12.90
2022-11-14T16:51:32.974Z,13.43
2022-11-14T16:56:50.152Z,14.27
2022-11-14T17:02:16.222Z,14.60
2022-11-14T17:07:37.080Z,13.47
2022-11-14T17:12:57.588Z,14.27
2022-11-14T17:18:18.238Z,13.97
2022-11-14T17:23:38.833Z,13.60
2022-11-14T17:28:59.143Z,13.50
2022-11-14T17:34:19.668Z,13.50
2022-11-14T17:39:40.505Z,12.57
2022-11-14T17:45:01.777Z,12.47
2022-11-14T17:50:22.121Z,12.73
2022-11-14T17:55:42.702Z,13.27
2022-11-14T18:01:09.546Z,13.80
2022-11-14T18:06:30.168Z,13.40
2022-11-14T18:11:50.544Z,13.03
2022-11-14T18:17:13.423Z,12.33
2022-11-14T18:22:33.848Z,12.30
2022-11-14T18:27:54.323Z,12.77
2022-11-14T18:33:14.558Z,11.80
2022-11-14T18:38:35.004Z,14.50
2022-11-14T18:43:55.755Z,13.70
2022-11-14T18:49:16.300Z,15.53
2022-11-14T18:54:36.420Z,16.20
2022-11-14T18:59:56.911Z,14.93
2022-11-14T19:05:17.592Z,16.10
2022-11-14T19:10:37.967Z,15.60
2022-11-14T19:16:03.469Z,17.20
2022-11-14T19:21:24.248Z,16.73
2022-11-14T19:26:45.155Z,16.30
2022-11-14T19:32:06.050Z,17.90
2022-11-14T19:37:26.821Z,16.43
2022-11-14T19:43:13.400Z,18.13
2022-11-14T19:48:37.974Z,16.90
2022-11-14T19:53:59.861Z,17.57
2022-11-14T19:59:24.238Z,18.43
2022-11-14T20:04:46.687Z,17.77
2022-11-14T20:10:07.979Z,18.70
2022-11-14T20:15:29.630Z,17.10
2022-11-14T20:20:50.211Z,18.47
2022-11-14T20:26:11.733Z,17.00
2022-11-14T20:31:32.284Z,18.03
2022-11-14T20:42:33.280Z,17.93
2022-11-14T20:47:54.659Z,19.73
2022-11-14T20:53:15.168Z,19.17
2022-11-14T20:58:35.988Z,17.87
2022-11-14T21:03:56.632Z,18.03
2022-11-14T21:09:17.386Z,17.03
2022-11-14T21:14:38.027Z,17.20
2022-11-14T21:19:58.362Z,19.37
2022-11-14T21:25:18.831Z,19.87
2022-11-14T21:30:39.398Z,18.43
2022-11-14T21:36:16.310Z,18.20
2022-11-14T21:41:41.668Z,19.50
2022-11-14T21:47:01.963Z,19.57
2022-11-14T21:52:25.568Z,17.17
2022-11-14T21:57:46.224Z,18.17
2022-11-14T22:03:25.247Z,18.73
2022-11-14T22:08:45.655Z,18.27
2022-11-14T22:14:07.235Z,18.27
2022-11-14T22:19:27.832Z,18.83
2022-11-14T22:24:48.113Z,15.87
2022-11-14T22:30:09.419Z,17.13
2022-11-14T22:35:29.859Z,19.03
2022-11-14T22:40:50.390Z,17.47
2022-11-14T22:46:12.857Z,16.77
2022-11-14T22:51:33.043Z,16.67
2022-11-14T22:56:53.671Z,15.40
2022-11-14T23:02:14.065Z,17.87
2022-11-14T23:07:34.728Z,14.93
2022-11-14T23:12:55.088Z,15.50
2022-11-14T23:18:15.494Z,15.27
2022-11-14T23:23:35.799Z,15.10
2022-11-14T23:28:56.444Z,14.27
2022-11-14T23:34:17.018Z,14.30
2022-11-14T23:39:37.530Z,15.37
2022-11-14T23:44:58.123Z,13.63
2022-11-14T23:50:18.662Z,13.93
2022-11-14T23:55:39.147Z,15.27
